sensor_id;sensor_type;location;lat;lon;timestamp;P1;durP1;ratioP1;P2;durP2;ratioP2
13805;SDS011;6974;53.606;9.872;2023-07-31T00:01:19;3.83;;;2.40;;
13805;SDS011;6974;53.606;9.872;2023-07-31T00:03:46;6.90;;;2.70;;
13805;SDS011;6974;53.606;9.872;2023-07-31T00:06:13;8.00;;;2.63;;
13805;SDS011;6974;53.606;9.872;2023-07-31T00:08:40;8.27;;;3.20;;
13805;SDS011;6974;53.606;9.872;2023-07-31T00:11:08;6.53;;;2.90;;
13805;SDS011;6974;53.606;9.872;2023-07-31T00:13:35;8.20;;;2.97;;
13805;SDS011;6974;53.606;9.872;2023-07-31T00:16:02;6.27;;;2.60;;
13805;SDS011;6974;53.606;9.872;2023-07-31T00:18:29;7.23;;;2.93;;
13805;SDS011;6974;53.606;9.872;2023-07-31T00:20:55;4.97;;;2.43;;
13805;SDS011;6974;53.606;9.872;2023-07-31T00:23:22;6.50;;;2.67;;
13805;SDS011;6974;53.606;9.872;2023-07-31T00:25:49;6.67;;;2.60;;
13805;SDS011;6974;53.606;9.872;2023-07-31T00:28:17;9.00;;;2.67;;
13805;SDS011;6974;53.606;9.872;2023-07-31T00:30:44;5.13;;;2.87;;
13805;SDS011;6974;53.606;9.872;2023-07-31T00:33:11;6.20;;;2.87;;
13805;SDS011;6974;53.606;9.872;2023-07-31T00:35:37;5.97;;;2.63;;
13805;SDS011;6974;53.606;9.872;2023-07-31T00:38:04;6.20;;;2.53;;
13805;SDS011;6974;53.606;9.872;2023-07-31T00:40:34;6.23;;;3.00;;
13805;SDS011;6974;53.606;9.872;2023-07-31T00:43:01;8.80;;;2.73;;
13805;SDS011;6974;53.606;9.872;2023-07-31T00:45:30;6.63;;;2.60;;
13805;SDS011;6974;53.606;9.872;2023-07-31T00:47:59;5.10;;;2.17;;
13805;SDS011;6974;53.606;9.872;2023-07-31T00:50:26;6.43;;;2.83;;
13805;SDS011;6974;53.606;9.872;2023-07-31T00:52:54;6.07;;;2.67;;
13805;SDS011;6974;53.606;9.872;2023-07-31T00:55:21;5.73;;;2.60;;
13805;SDS011;6974;53.606;9.872;2023-07-31T00:57:48;6.90;;;2.67;;
13805;SDS011;6974;53.606;9.872;2023-07-31T01:00:17;5.03;;;2.63;;
13805;SDS011;6974;53.606;9.872;2023-07-31T01:02:46;5.07;;;2.40;;
13805;SDS011;6974;53.606;9.872;2023-07-31T01:05:13;6.43;;;2.80;;
13805;SDS011;6974;53.606;9.872;2023-07-31T01:07:42;5.03;;;2.70;;
13805;SDS011;6974;53.606;9.872;2023-07-31T01:10:16;6.93;;;3.20;;
13805;SDS011;6974;53.606;9.872;2023-07-31T01:12:46;5.77;;;2.87;;
13805;SDS011;6974;53.606;9.872;2023-07-31T01:15:14;6.03;;;2.67;;
13805;SDS011;6974;53.606;9.872;2023-07-31T01:17:42;7.37;;;3.30;;
13805;SDS011;6974;53.606;9.872;2023-07-31T01:20:12;7.23;;;2.70;;
13805;SDS011;6974;53.606;9.872;2023-07-31T01:22:56;7.90;;;2.63;;
13805;SDS011;6974;53.606;9.872;2023-07-31T01:25:58;6.67;;;3.10;;
13805;SDS011;6974;53.606;9.872;2023-07-31T01:28:32;5.00;;;2.57;;
13805;SDS011;6974;53.606;9.872;2023-07-31T01:31:06;6.67;;;3.07;;
13805;SDS011;6974;53.606;9.872;2023-07-31T01:33:36;6.90;;;3.07;;
13805;SDS011;6974;53.606;9.872;2023-07-31T01:36:04;5.13;;;2.60;;
13805;SDS011;6974;53.606;9.872;2023-07-31T01:38:31;5.60;;;3.20;;
13805;SDS011;6974;53.606;9.872;2023-07-31T01:41:00;6.37;;;2.87;;
13805;SDS011;6974;53.606;9.872;2023-07-31T01:43:26;5.30;;;3.03;;
13805;SDS011;6974;53.606;9.872;2023-07-31T01:45:53;6.93;;;2.93;;
13805;SDS011;6974;53.606;9.872;2023-07-31T01:48:20;6.27;;;3.10;;
13805;SDS011;6974;53.606;9.872;2023-07-31T01:50:47;6.47;;;3.13;;
13805;SDS011;6974;53.606;9.872;2023-07-31T01:53:14;6.70;;;3.17;;
13805;SDS011;6974;53.606;9.872;2023-07-31T01:55:41;6.33;;;3.17;;
13805;SDS011;6974;53.606;9.872;2023-07-31T01:58:09;5.43;;;3.30;;
13805;SDS011;6974;53.606;9.872;2023-07-31T02:00:36;7.20;;;2.90;;
13805;SDS011;6974;53.606;9.872;2023-07-31T02:03:03;5.57;;;3.30;;
13805;SDS011;6974;53.606;9.872;2023-07-31T02:05:30;8.40;;;3.30;;
13805;SDS011;6974;53.606;9.872;2023-07-31T02:07:57;6.57;;;3.20;;
13805;SDS011;6974;53.606;9.872;2023-07-31T02:10:23;5.70;;;2.77;;
13805;SDS011;6974;53.606;9.872;2023-07-31T02:12:50;7.70;;;3.43;;
13805;SDS011;6974;53.606;9.872;2023-07-31T02:15:18;9.20;;;3.30;;
13805;SDS011;6974;53.606;9.872;2023-07-31T02:17:46;6.47;;;3.53;;
13805;SDS011;6974;53.606;9.872;2023-07-31T02:20:13;8.63;;;3.30;;
13805;SDS011;6974;53.606;9.872;2023-07-31T02:22:40;6.00;;;3.40;;
13805;SDS011;6974;53.606;9.872;2023-07-31T02:25:07;6.40;;;3.30;;
13805;SDS011;6974;53.606;9.872;2023-07-31T02:27:34;5.77;;;3.90;;
13805;SDS011;6974;53.606;9.872;2023-07-31T02:30:01;7.90;;;3.83;;
13805;SDS011;6974;53.606;9.872;2023-07-31T02:32:29;5.83;;;3.33;;
13805;SDS011;6974;53.606;9.872;2023-07-31T02:34:56;5.63;;;3.23;;
13805;SDS011;6974;53.606;9.872;2023-07-31T02:37:23;5.63;;;3.43;;
13805;SDS011;6974;53.606;9.872;2023-07-31T02:39:50;5.53;;;3.47;;
13805;SDS011;6974;53.606;9.872;2023-07-31T02:42:16;6.23;;;3.40;;
13805;SDS011;6974;53.606;9.872;2023-07-31T02:44:43;4.20;;;2.80;;
13805;SDS011;6974;53.606;9.872;2023-07-31T02:47:10;5.70;;;3.20;;
13805;SDS011;6974;53.606;9.872;2023-07-31T02:49:38;7.60;;;3.80;;
13805;SDS011;6974;53.606;9.872;2023-07-31T02:52:05;5.87;;;3.60;;
13805;SDS011;6974;53.606;9.872;2023-07-31T02:54:32;5.57;;;3.10;;
13805;SDS011;6974;53.606;9.872;2023-07-31T02:56:59;8.37;;;3.47;;
13805;SDS011;6974;53.606;9.872;2023-07-31T02:59:27;5.17;;;2.93;;
13805;SDS011;6974;53.606;9.872;2023-07-31T03:01:54;4.83;;;3.20;;
13805;SDS011;6974;53.606;9.872;2023-07-31T03:04:21;7.07;;;3.20;;
13805;SDS011;6974;53.606;9.872;2023-07-31T03:06:49;5.90;;;3.23;;
13805;SDS011;6974;53.606;9.872;2023-07-31T03:09:16;6.53;;;3.53;;
13805;SDS011;6974;53.606;9.872;2023-07-31T03:11:43;5.70;;;3.13;;
13805;SDS011;6974;53.606;9.872;2023-07-31T03:14:09;6.50;;;4.20;;
13805;SDS011;6974;53.606;9.872;2023-07-31T03:16:36;8.90;;;4.30;;
13805;SDS011;6974;53.606;9.872;2023-07-31T03:19:03;6.47;;;3.63;;
13805;SDS011;6974;53.606;9.872;2023-07-31T03:21:30;6.43;;;3.97;;
13805;SDS011;6974;53.606;9.872;2023-07-31T03:23:58;7.03;;;3.73;;
13805;SDS011;6974;53.606;9.872;2023-07-31T03:26:25;6.60;;;3.40;;
13805;SDS011;6974;53.606;9.872;2023-07-31T03:28:52;5.57;;;3.40;;
13805;SDS011;6974;53.606;9.872;2023-07-31T03:31:19;6.13;;;3.50;;
13805;SDS011;6974;53.606;9.872;2023-07-31T03:33:45;5.77;;;3.10;;
13805;SDS011;6974;53.606;9.872;2023-07-31T03:36:12;6.03;;;3.00;;
13805;SDS011;6974;53.606;9.872;2023-07-31T03:38:39;7.33;;;3.90;;
13805;SDS011;6974;53.606;9.872;2023-07-31T03:41:07;10.40;;;5.27;;
13805;SDS011;6974;53.606;9.872;2023-07-31T03:43:35;4.20;;;3.00;;
13805;SDS011;6974;53.606;9.872;2023-07-31T03:46:02;4.53;;;3.33;;
13805;SDS011;6974;53.606;9.872;2023-07-31T03:48:29;5.70;;;3.30;;
13805;SDS011;6974;53.606;9.872;2023-07-31T03:50:56;6.90;;;3.17;;
13805;SDS011;6974;53.606;9.872;2023-07-31T03:53:23;6.10;;;2.90;;
13805;SDS011;6974;53.606;9.872;2023-07-31T03:55:50;6.30;;;3.13;;
13805;SDS011;6974;53.606;9.872;2023-07-31T03:58:18;5.83;;;3.40;;
13805;SDS011;6974;53.606;9.872;2023-07-31T04:00:45;5.03;;;3.20;;
13805;SDS011;6974;53.606;9.872;2023-07-31T04:03:12;5.10;;;3.20;;
13805;SDS011;6974;53.606;9.872;2023-07-31T04:05:38;5.80;;;3.13;;
13805;SDS011;6974;53.606;9.872;2023-07-31T04:08:05;5.43;;;3.50;;
13805;SDS011;6974;53.606;9.872;2023-07-31T04:10:32;6.47;;;3.70;;
13805;SDS011;6974;53.606;9.872;2023-07-31T04:12:59;3.73;;;3.27;;
13805;SDS011;6974;53.606;9.872;2023-07-31T04:15:28;7.43;;;3.40;;
13805;SDS011;6974;53.606;9.872;2023-07-31T04:17:54;4.87;;;2.90;;
13805;SDS011;6974;53.606;9.872;2023-07-31T04:20:21;5.53;;;3.13;;
13805;SDS011;6974;53.606;9.872;2023-07-31T04:22:48;4.07;;;3.17;;
13805;SDS011;6974;53.606;9.872;2023-07-31T04:25:15;4.73;;;3.03;;
13805;SDS011;6974;53.606;9.872;2023-07-31T04:27:42;4.80;;;2.83;;
13805;SDS011;6974;53.606;9.872;2023-07-31T04:30:10;5.33;;;3.27;;
13805;SDS011;6974;53.606;9.872;2023-07-31T04:32:38;3.93;;;3.10;;
13805;SDS011;6974;53.606;9.872;2023-07-31T04:35:05;5.60;;;3.37;;
13805;SDS011;6974;53.606;9.872;2023-07-31T04:37:32;3.13;;;2.83;;
13805;SDS011;6974;53.606;9.872;2023-07-31T04:39:59;2.97;;;2.67;;
13805;SDS011;6974;53.606;9.872;2023-07-31T04:42:25;3.73;;;2.77;;
13805;SDS011;6974;53.606;9.872;2023-07-31T04:44:52;5.17;;;2.90;;
13805;SDS011;6974;53.606;9.872;2023-07-31T04:47:19;4.30;;;2.57;;
13805;SDS011;6974;53.606;9.872;2023-07-31T04:49:47;2.97;;;2.60;;
13805;SDS011;6974;53.606;9.872;2023-07-31T04:52:14;4.70;;;2.90;;
13805;SDS011;6974;53.606;9.872;2023-07-31T04:54:41;3.17;;;2.60;;
13805;SDS011;6974;53.606;9.872;2023-07-31T04:57:08;4.43;;;3.43;;
13805;SDS011;6974;53.606;9.872;2023-07-31T04:59:34;4.10;;;3.60;;
13805;SDS011;6974;53.606;9.872;2023-07-31T05:02:02;4.07;;;3.03;;
13805;SDS011;6974;53.606;9.872;2023-07-31T05:04:29;2.93;;;2.60;;
13805;SDS011;6974;53.606;9.872;2023-07-31T05:06:57;3.63;;;2.60;;
13805;SDS011;6974;53.606;9.872;2023-07-31T05:09:24;3.03;;;2.60;;
13805;SDS011;6974;53.606;9.872;2023-07-31T05:11:50;2.87;;;2.67;;
13805;SDS011;6974;53.606;9.872;2023-07-31T05:14:17;4.70;;;3.00;;
13805;SDS011;6974;53.606;9.872;2023-07-31T05:16:45;2.97;;;2.70;;
13805;SDS011;6974;53.606;9.872;2023-07-31T05:19:12;3.37;;;2.80;;
13805;SDS011;6974;53.606;9.872;2023-07-31T05:21:39;3.27;;;2.53;;
13805;SDS011;6974;53.606;9.872;2023-07-31T05:24:07;4.63;;;2.53;;
13805;SDS011;6974;53.606;9.872;2023-07-31T05:26:34;2.43;;;2.23;;
13805;SDS011;6974;53.606;9.872;2023-07-31T05:29:01;3.03;;;2.20;;
13805;SDS011;6974;53.606;9.872;2023-07-31T05:31:28;2.53;;;2.30;;
13805;SDS011;6974;53.606;9.872;2023-07-31T05:33:54;2.80;;;2.23;;
13805;SDS011;6974;53.606;9.872;2023-07-31T05:36:21;2.87;;;2.50;;
13805;SDS011;6974;53.606;9.872;2023-07-31T05:38:48;3.03;;;2.50;;
13805;SDS011;6974;53.606;9.872;2023-07-31T05:41:16;3.03;;;2.63;;
13805;SDS011;6974;53.606;9.872;2023-07-31T05:43:43;2.63;;;2.20;;
13805;SDS011;6974;53.606;9.872;2023-07-31T05:46:10;2.50;;;2.30;;
13805;SDS011;6974;53.606;9.872;2023-07-31T05:48:38;2.10;;;1.90;;
13805;SDS011;6974;53.606;9.872;2023-07-31T05:51:04;2.57;;;2.37;;
13805;SDS011;6974;53.606;9.872;2023-07-31T05:53:32;2.60;;;2.40;;
13805;SDS011;6974;53.606;9.872;2023-07-31T05:55:59;2.80;;;2.57;;
13805;SDS011;6974;53.606;9.872;2023-07-31T05:58:27;2.97;;;2.37;;
13805;SDS011;6974;53.606;9.872;2023-07-31T06:00:54;2.30;;;2.20;;
13805;SDS011;6974;53.606;9.872;2023-07-31T06:03:21;3.83;;;2.40;;
13805;SDS011;6974;53.606;9.872;2023-07-31T06:05:48;2.60;;;2.40;;
13805;SDS011;6974;53.606;9.872;2023-07-31T06:08:15;2.60;;;2.40;;
13805;SDS011;6974;53.606;9.872;2023-07-31T06:10:41;2.53;;;2.27;;
13805;SDS011;6974;53.606;9.872;2023-07-31T06:13:08;2.60;;;2.40;;
13805;SDS011;6974;53.606;9.872;2023-07-31T06:15:37;2.77;;;2.50;;
13805;SDS011;6974;53.606;9.872;2023-07-31T06:18:03;2.30;;;2.10;;
13805;SDS011;6974;53.606;9.872;2023-07-31T06:20:32;2.70;;;2.50;;
13805;SDS011;6974;53.606;9.872;2023-07-31T06:22:59;3.73;;;2.40;;
13805;SDS011;6974;53.606;9.872;2023-07-31T06:25:26;2.47;;;2.27;;
13805;SDS011;6974;53.606;9.872;2023-07-31T06:27:53;2.90;;;2.50;;
13805;SDS011;6974;53.606;9.872;2023-07-31T06:30:20;2.40;;;2.20;;
13805;SDS011;6974;53.606;9.872;2023-07-31T06:32:48;2.50;;;2.30;;
13805;SDS011;6974;53.606;9.872;2023-07-31T06:35:15;2.40;;;2.20;;
13805;SDS011;6974;53.606;9.872;2023-07-31T06:37:42;2.63;;;2.43;;
13805;SDS011;6974;53.606;9.872;2023-07-31T06:40:09;2.30;;;2.10;;
13805;SDS011;6974;53.606;9.872;2023-07-31T06:42:37;2.30;;;2.10;;
13805;SDS011;6974;53.606;9.872;2023-07-31T06:45:04;2.50;;;2.30;;
13805;SDS011;6974;53.606;9.872;2023-07-31T06:47:32;2.63;;;2.30;;
13805;SDS011;6974;53.606;9.872;2023-07-31T06:50:01;2.27;;;2.07;;
13805;SDS011;6974;53.606;9.872;2023-07-31T06:52:27;2.57;;;2.37;;
13805;SDS011;6974;53.606;9.872;2023-07-31T06:55:01;3.50;;;2.30;;
13805;SDS011;6974;53.606;9.872;2023-07-31T06:57:29;2.60;;;2.40;;
13805;SDS011;6974;53.606;9.872;2023-07-31T06:59:56;3.93;;;3.20;;
13805;SDS011;6974;53.606;9.872;2023-07-31T07:02:23;2.83;;;2.63;;
13805;SDS011;6974;53.606;9.872;2023-07-31T07:04:50;2.60;;;2.40;;
13805;SDS011;6974;53.606;9.872;2023-07-31T07:07:18;2.70;;;2.50;;
13805;SDS011;6974;53.606;9.872;2023-07-31T07:09:45;2.70;;;2.50;;
13805;SDS011;6974;53.606;9.872;2023-07-31T07:12:12;2.80;;;2.60;;
13805;SDS011;6974;53.606;9.872;2023-07-31T07:14:39;3.67;;;2.87;;
13805;SDS011;6974;53.606;9.872;2023-07-31T07:17:06;2.90;;;2.70;;
13805;SDS011;6974;53.606;9.872;2023-07-31T07:19:32;2.70;;;2.50;;
13805;SDS011;6974;53.606;9.872;2023-07-31T07:21:58;2.57;;;2.30;;
13805;SDS011;6974;53.606;9.872;2023-07-31T07:24:28;2.70;;;2.50;;
13805;SDS011;6974;53.606;9.872;2023-07-31T07:26:55;3.30;;;2.90;;
13805;SDS011;6974;53.606;9.872;2023-07-31T07:29:22;2.83;;;2.63;;
13805;SDS011;6974;53.606;9.872;2023-07-31T07:31:49;2.13;;;1.93;;
13805;SDS011;6974;53.606;9.872;2023-07-31T07:34:15;2.30;;;2.10;;
13805;SDS011;6974;53.606;9.872;2023-07-31T07:36:42;2.30;;;2.00;;
13805;SDS011;6974;53.606;9.872;2023-07-31T07:39:10;2.40;;;2.20;;
13805;SDS011;6974;53.606;9.872;2023-07-31T07:41:38;2.27;;;2.07;;
13805;SDS011;6974;53.606;9.872;2023-07-31T07:44:05;2.40;;;2.20;;
13805;SDS011;6974;53.606;9.872;2023-07-31T07:46:34;2.50;;;2.30;;
13805;SDS011;6974;53.606;9.872;2023-07-31T07:49:01;2.70;;;2.50;;
13805;SDS011;6974;53.606;9.872;2023-07-31T07:51:28;2.50;;;2.30;;
13805;SDS011;6974;53.606;9.872;2023-07-31T07:53:56;2.67;;;2.47;;
13805;SDS011;6974;53.606;9.872;2023-07-31T07:56:23;2.77;;;2.57;;
13805;SDS011;6974;53.606;9.872;2023-07-31T07:58:53;2.60;;;2.40;;
13805;SDS011;6974;53.606;9.872;2023-07-31T08:01:20;2.40;;;2.20;;
13805;SDS011;6974;53.606;9.872;2023-07-31T08:03:47;2.43;;;2.23;;
13805;SDS011;6974;53.606;9.872;2023-07-31T08:06:14;2.40;;;2.20;;
13805;SDS011;6974;53.606;9.872;2023-07-31T08:08:41;2.73;;;2.50;;
13805;SDS011;6974;53.606;9.872;2023-07-31T08:11:07;3.00;;;2.80;;
13805;SDS011;6974;53.606;9.872;2023-07-31T08:13:34;2.50;;;2.30;;
13805;SDS011;6974;53.606;9.872;2023-07-31T08:16:03;2.50;;;2.30;;
13805;SDS011;6974;53.606;9.872;2023-07-31T08:18:30;86.13;;;37.00;;
13805;SDS011;6974;53.606;9.872;2023-07-31T08:20:57;153.30;;;69.97;;
13805;SDS011;6974;53.606;9.872;2023-07-31T08:23:24;67.90;;;29.87;;
13805;SDS011;6974;53.606;9.872;2023-07-31T08:25:51;39.17;;;19.27;;
13805;SDS011;6974;53.606;9.872;2023-07-31T08:28:18;53.80;;;24.95;;
13805;SDS011;6974;53.606;9.872;2023-07-31T08:30:45;71.90;;;34.63;;
13805;SDS011;6974;53.606;9.872;2023-07-31T08:33:13;5.03;;;3.87;;
13805;SDS011;6974;53.606;9.872;2023-07-31T08:35:40;2.67;;;2.47;;
13805;SDS011;6974;53.606;9.872;2023-07-31T08:38:07;3.33;;;2.57;;
13805;SDS011;6974;53.606;9.872;2023-07-31T08:40:35;2.50;;;2.30;;
13805;SDS011;6974;53.606;9.872;2023-07-31T08:43:02;2.93;;;2.20;;
13805;SDS011;6974;53.606;9.872;2023-07-31T08:45:30;2.33;;;2.13;;
13805;SDS011;6974;53.606;9.872;2023-07-31T08:47:58;2.53;;;2.20;;
13805;SDS011;6974;53.606;9.872;2023-07-31T08:50:27;2.67;;;2.20;;
13805;SDS011;6974;53.606;9.872;2023-07-31T08:52:53;3.77;;;2.50;;
13805;SDS011;6974;53.606;9.872;2023-07-31T08:55:20;2.50;;;1.90;;
13805;SDS011;6974;53.606;9.872;2023-07-31T08:57:48;2.47;;;2.00;;
13805;SDS011;6974;53.606;9.872;2023-07-31T09:00:18;1.80;;;1.70;;
13805;SDS011;6974;53.606;9.872;2023-07-31T09:02:50;1.83;;;1.73;;
13805;SDS011;6974;53.606;9.872;2023-07-31T09:05:22;1.90;;;1.80;;
13805;SDS011;6974;53.606;9.872;2023-07-31T09:07:51;2.20;;;2.00;;
13805;SDS011;6974;53.606;9.872;2023-07-31T09:10:18;1.77;;;1.67;;
13805;SDS011;6974;53.606;9.872;2023-07-31T09:12:45;2.77;;;1.80;;
13805;SDS011;6974;53.606;9.872;2023-07-31T09:15:12;1.93;;;1.57;;
13805;SDS011;6974;53.606;9.872;2023-07-31T09:17:39;1.83;;;1.70;;
13805;SDS011;6974;53.606;9.872;2023-07-31T09:20:12;2.33;;;2.13;;
13805;SDS011;6974;53.606;9.872;2023-07-31T09:22:40;1.80;;;1.70;;
13805;SDS011;6974;53.606;9.872;2023-07-31T09:25:19;1.90;;;1.60;;
13805;SDS011;6974;53.606;9.872;2023-07-31T09:27:48;1.67;;;1.50;;
13805;SDS011;6974;53.606;9.872;2023-07-31T09:30:16;2.10;;;1.70;;
13805;SDS011;6974;53.606;9.872;2023-07-31T09:32:44;2.67;;;1.90;;
13805;SDS011;6974;53.606;9.872;2023-07-31T09:35:21;2.10;;;1.70;;
13805;SDS011;6974;53.606;9.872;2023-07-31T09:37:49;2.07;;;1.93;;
13805;SDS011;6974;53.606;9.872;2023-07-31T09:40:28;1.70;;;1.60;;
13805;SDS011;6974;53.606;9.872;2023-07-31T09:42:56;1.97;;;1.70;;
13805;SDS011;6974;53.606;9.872;2023-07-31T09:45:24;1.80;;;1.70;;
13805;SDS011;6974;53.606;9.872;2023-07-31T09:47:51;1.73;;;1.63;;
13805;SDS011;6974;53.606;9.872;2023-07-31T09:50:20;2.07;;;1.87;;
13805;SDS011;6974;53.606;9.872;2023-07-31T09:52:47;2.20;;;1.97;;
13805;SDS011;6974;53.606;9.872;2023-07-31T09:55:14;2.57;;;1.93;;
13805;SDS011;6974;53.606;9.872;2023-07-31T09:57:43;1.77;;;1.67;;
13805;SDS011;6974;53.606;9.872;2023-07-31T10:00:12;1.80;;;1.70;;
13805;SDS011;6974;53.606;9.872;2023-07-31T10:02:40;13.43;;;4.70;;
13805;SDS011;6974;53.606;9.872;2023-07-31T10:05:07;2.40;;;2.10;;
13805;SDS011;6974;53.606;9.872;2023-07-31T10:07:36;2.37;;;2.17;;
13805;SDS011;6974;53.606;9.872;2023-07-31T10:10:04;2.37;;;2.17;;
13805;SDS011;6974;53.606;9.872;2023-07-31T10:12:33;2.27;;;1.77;;
13805;SDS011;6974;53.606;9.872;2023-07-31T10:15:02;2.30;;;2.10;;
13805;SDS011;6974;53.606;9.872;2023-07-31T10:17:30;1.93;;;1.80;;
13805;SDS011;6974;53.606;9.872;2023-07-31T10:19:57;1.70;;;1.60;;
13805;SDS011;6974;53.606;9.872;2023-07-31T10:22:26;1.90;;;1.80;;
13805;SDS011;6974;53.606;9.872;2023-07-31T10:24:53;1.70;;;1.60;;
13805;SDS011;6974;53.606;9.872;2023-07-31T10:27:23;2.00;;;1.80;;
13805;SDS011;6974;53.606;9.872;2023-07-31T10:29:50;2.27;;;1.73;;
13805;SDS011;6974;53.606;9.872;2023-07-31T10:32:20;2.00;;;1.80;;
13805;SDS011;6974;53.606;9.872;2023-07-31T10:34:48;1.80;;;1.70;;
13805;SDS011;6974;53.606;9.872;2023-07-31T10:37:19;1.90;;;1.70;;
13805;SDS011;6974;53.606;9.872;2023-07-31T10:39:59;1.43;;;1.33;;
13805;SDS011;6974;53.606;9.872;2023-07-31T10:42:28;1.67;;;1.50;;
13805;SDS011;6974;53.606;9.872;2023-07-31T10:44:59;1.43;;;1.33;;
13805;SDS011;6974;53.606;9.872;2023-07-31T10:47:29;1.50;;;1.40;;
13805;SDS011;6974;53.606;9.872;2023-07-31T10:50:11;1.60;;;1.40;;
13805;SDS011;6974;53.606;9.872;2023-07-31T10:52:39;1.57;;;1.47;;
13805;SDS011;6974;53.606;9.872;2023-07-31T10:57:52;2.00;;;1.80;;
13805;SDS011;6974;53.606;9.872;2023-07-31T11:00:23;1.87;;;1.10;;
13805;SDS011;6974;53.606;9.872;2023-07-31T11:03:03;0.90;;;0.90;;
13805;SDS011;6974;53.606;9.872;2023-07-31T11:05:41;1.67;;;1.23;;
13805;SDS011;6974;53.606;9.872;2023-07-31T11:08:10;1.20;;;1.10;;
13805;SDS011;6974;53.606;9.872;2023-07-31T11:10:38;1.43;;;1.20;;
13805;SDS011;6974;53.606;9.872;2023-07-31T11:13:05;1.40;;;1.30;;
13805;SDS011;6974;53.606;9.872;2023-07-31T11:15:32;1.40;;;1.30;;
13805;SDS011;6974;53.606;9.872;2023-07-31T11:17:59;1.40;;;1.30;;
13805;SDS011;6974;53.606;9.872;2023-07-31T11:20:30;1.30;;;1.20;;
13805;SDS011;6974;53.606;9.872;2023-07-31T11:22:58;1.50;;;1.40;;
13805;SDS011;6974;53.606;9.872;2023-07-31T11:25:28;1.30;;;1.20;;
13805;SDS011;6974;53.606;9.872;2023-07-31T11:27:56;1.40;;;1.30;;
13805;SDS011;6974;53.606;9.872;2023-07-31T11:30:23;1.10;;;1.00;;
13805;SDS011;6974;53.606;9.872;2023-07-31T11:32:50;1.00;;;1.00;;
13805;SDS011;6974;53.606;9.872;2023-07-31T11:35:18;1.57;;;1.47;;
13805;SDS011;6974;53.606;9.872;2023-07-31T11:37:46;2.60;;;1.97;;
13805;SDS011;6974;53.606;9.872;2023-07-31T11:40:13;0.90;;;0.90;;
13805;SDS011;6974;53.606;9.872;2023-07-31T11:42:40;0.90;;;0.90;;
13805;SDS011;6974;53.606;9.872;2023-07-31T11:45:08;1.27;;;1.17;;
13805;SDS011;6974;53.606;9.872;2023-07-31T11:47:35;1.20;;;1.10;;
13805;SDS011;6974;53.606;9.872;2023-07-31T11:50:04;1.10;;;1.00;;
13805;SDS011;6974;53.606;9.872;2023-07-31T11:52:33;1.13;;;1.13;;
13805;SDS011;6974;53.606;9.872;2023-07-31T11:55:05;1.03;;;1.00;;
13805;SDS011;6974;53.606;9.872;2023-07-31T11:57:36;1.30;;;1.20;;
13805;SDS011;6974;53.606;9.872;2023-07-31T12:00:05;1.37;;;1.27;;
13805;SDS011;6974;53.606;9.872;2023-07-31T12:02:34;1.47;;;1.37;;
13805;SDS011;6974;53.606;9.872;2023-07-31T12:05:01;1.40;;;1.30;;
13805;SDS011;6974;53.606;9.872;2023-07-31T12:07:42;1.50;;;1.30;;
13805;SDS011;6974;53.606;9.872;2023-07-31T12:10:12;1.50;;;1.40;;
13805;SDS011;6974;53.606;9.872;2023-07-31T12:12:55;2.17;;;1.60;;
13805;SDS011;6974;53.606;9.872;2023-07-31T12:15:32;1.50;;;1.40;;
13805;SDS011;6974;53.606;9.872;2023-07-31T12:18:00;1.97;;;1.50;;
13805;SDS011;6974;53.606;9.872;2023-07-31T12:20:29;1.53;;;1.00;;
13805;SDS011;6974;53.606;9.872;2023-07-31T12:22:57;1.30;;;1.20;;
13805;SDS011;6974;53.606;9.872;2023-07-31T12:25:29;1.37;;;1.27;;
13805;SDS011;6974;53.606;9.872;2023-07-31T12:27:57;1.57;;;1.07;;
13805;SDS011;6974;53.606;9.872;2023-07-31T12:30:27;1.10;;;1.10;;
13805;SDS011;6974;53.606;9.872;2023-07-31T12:32:55;1.20;;;1.10;;
13805;SDS011;6974;53.606;9.872;2023-07-31T12:35:22;1.30;;;1.20;;
13805;SDS011;6974;53.606;9.872;2023-07-31T12:37:49;1.40;;;1.30;;
13805;SDS011;6974;53.606;9.872;2023-07-31T12:40:16;1.93;;;1.10;;
13805;SDS011;6974;53.606;9.872;2023-07-31T12:42:44;1.77;;;1.30;;
13805;SDS011;6974;53.606;9.872;2023-07-31T12:45:11;1.30;;;1.20;;
13805;SDS011;6974;53.606;9.872;2023-07-31T12:47:37;1.30;;;1.20;;
13805;SDS011;6974;53.606;9.872;2023-07-31T12:50:05;1.63;;;1.20;;
13805;SDS011;6974;53.606;9.872;2023-07-31T12:52:33;2.37;;;1.00;;
13805;SDS011;6974;53.606;9.872;2023-07-31T12:55:00;1.27;;;1.17;;
13805;SDS011;6974;53.606;9.872;2023-07-31T12:57:27;1.27;;;1.17;;
13805;SDS011;6974;53.606;9.872;2023-07-31T12:59:55;1.67;;;1.30;;
13805;SDS011;6974;53.606;9.872;2023-07-31T13:02:22;1.60;;;1.50;;
13805;SDS011;6974;53.606;9.872;2023-07-31T13:04:49;1.30;;;1.20;;
13805;SDS011;6974;53.606;9.872;2023-07-31T13:07:16;1.50;;;1.30;;
13805;SDS011;6974;53.606;9.872;2023-07-31T13:09:43;2.30;;;1.60;;
13805;SDS011;6974;53.606;9.872;2023-07-31T13:12:10;1.20;;;1.10;;
13805;SDS011;6974;53.606;9.872;2023-07-31T13:14:37;1.67;;;1.10;;
13805;SDS011;6974;53.606;9.872;2023-07-31T13:17:05;1.40;;;1.23;;
13805;SDS011;6974;53.606;9.872;2023-07-31T13:19:32;1.40;;;1.30;;
13805;SDS011;6974;53.606;9.872;2023-07-31T13:21:59;1.97;;;1.20;;
13805;SDS011;6974;53.606;9.872;2023-07-31T13:24:26;1.30;;;1.20;;
13805;SDS011;6974;53.606;9.872;2023-07-31T13:26:53;1.10;;;1.00;;
13805;SDS011;6974;53.606;9.872;2023-07-31T13:29:19;1.20;;;1.10;;
13805;SDS011;6974;53.606;9.872;2023-07-31T13:31:47;1.33;;;1.23;;
13805;SDS011;6974;53.606;9.872;2023-07-31T13:34:15;1.50;;;1.20;;
13805;SDS011;6974;53.606;9.872;2023-07-31T13:36:42;1.50;;;1.37;;
13805;SDS011;6974;53.606;9.872;2023-07-31T13:39:08;1.50;;;1.40;;
13805;SDS011;6974;53.606;9.872;2023-07-31T13:41:35;1.60;;;1.23;;
13805;SDS011;6974;53.606;9.872;2023-07-31T13:44:03;1.37;;;1.27;;
13805;SDS011;6974;53.606;9.872;2023-07-31T13:46:29;1.87;;;1.40;;
13805;SDS011;6974;53.606;9.872;2023-07-31T13:48:57;1.90;;;1.40;;
13805;SDS011;6974;53.606;9.872;2023-07-31T13:51:26;1.50;;;1.40;;
13805;SDS011;6974;53.606;9.872;2023-07-31T13:53:53;1.40;;;1.30;;
13805;SDS011;6974;53.606;9.872;2023-07-31T13:56:20;3.63;;;1.47;;
13805;SDS011;6974;53.606;9.872;2023-07-31T13:58:47;2.30;;;2.10;;
13805;SDS011;6974;53.606;9.872;2023-07-31T14:01:14;1.83;;;1.70;;
13805;SDS011;6974;53.606;9.872;2023-07-31T14:03:41;2.37;;;1.60;;
13805;SDS011;6974;53.606;9.872;2023-07-31T14:06:08;2.33;;;1.70;;
13805;SDS011;6974;53.606;9.872;2023-07-31T14:08:36;1.83;;;1.73;;
13805;SDS011;6974;53.606;9.872;2023-07-31T14:11:03;2.07;;;1.87;;
13805;SDS011;6974;53.606;9.872;2023-07-31T14:13:29;2.37;;;1.77;;
13805;SDS011;6974;53.606;9.872;2023-07-31T14:15:56;2.27;;;1.60;;
13805;SDS011;6974;53.606;9.872;2023-07-31T14:18:23;1.57;;;1.40;;
13805;SDS011;6974;53.606;9.872;2023-07-31T14:20:50;1.60;;;1.33;;
13805;SDS011;6974;53.606;9.872;2023-07-31T14:23:17;1.50;;;1.40;;
13805;SDS011;6974;53.606;9.872;2023-07-31T14:25:46;1.30;;;1.20;;
13805;SDS011;6974;53.606;9.872;2023-07-31T14:28:13;3.53;;;1.60;;
13805;SDS011;6974;53.606;9.872;2023-07-31T14:30:40;2.40;;;1.70;;
13805;SDS011;6974;53.606;9.872;2023-07-31T14:33:07;1.77;;;1.50;;
13805;SDS011;6974;53.606;9.872;2023-07-31T14:35:33;1.60;;;1.50;;
13805;SDS011;6974;53.606;9.872;2023-07-31T14:38:01;1.40;;;1.30;;
13805;SDS011;6974;53.606;9.872;2023-07-31T14:40:28;1.60;;;1.50;;
13805;SDS011;6974;53.606;9.872;2023-07-31T14:42:56;1.50;;;1.40;;
13805;SDS011;6974;53.606;9.872;2023-07-31T14:45:23;1.87;;;1.60;;
13805;SDS011;6974;53.606;9.872;2023-07-31T14:47:50;1.97;;;1.77;;
13805;SDS011;6974;53.606;9.872;2023-07-31T14:50:17;2.20;;;1.70;;
13805;SDS011;6974;53.606;9.872;2023-07-31T14:52:44;1.60;;;1.40;;
13805;SDS011;6974;53.606;9.872;2023-07-31T14:55:11;2.03;;;1.83;;
13805;SDS011;6974;53.606;9.872;2023-07-31T14:57:38;2.63;;;2.30;;
13805;SDS011;6974;53.606;9.872;2023-07-31T15:00:07;2.20;;;2.00;;
13805;SDS011;6974;53.606;9.872;2023-07-31T15:02:35;1.60;;;1.50;;
13805;SDS011;6974;53.606;9.872;2023-07-31T15:05:02;2.23;;;2.03;;
13805;SDS011;6974;53.606;9.872;2023-07-31T15:07:29;2.17;;;1.97;;